Time;durP1;ratioP1;P1;durP2;ratioP2;P2;SDS_P1;SDS_P2;PMS_P1;PMS_P2;Temp;Humidity;BMP_temperature;BMP_pressure;BME280_temperature;BME280_humidity;BME280_pressure;Samples;Min_cycle;Max_cycle;Signal;HPM_P1;HPM_P2
2022/10/14 00:00:25;;;;;;;;;;;;;;;12.39;67.14;99981.16;4497922;31;32263;-89
2022/10/14 00:02:54;;;;;;;;;;;;;;;12.26;67.86;99983.09;4500329;31;34172;-91
2022/10/14 00:05:23;;;;;;;;;;;;;;;12.02;68.31;99986.06;4495350;31;34606;-90
2022/10/14 00:07:54;;;;;;;;;;;;;;;12.23;67.73;99979.69;4481946;31;32735;-88
2022/10/14 00:10:41;;;;;;;;;;;;;;;12.25;67.65;99980.50;4498779;31;34981;-92
2022/10/14 00:13:17;;;;;;;;;;;;;;;12.03;68.13;99970.44;4480612;31;33728;-88
2022/10/14 00:15:47;;;;;;;;;;;;;;;12.07;67.85;99979.91;4500759;31;34605;-88
2022/10/14 00:18:19;;;;;;;;;;;;;;;12.15;67.80;99978.06;4496546;31;34149;-92
2022/10/14 00:20:53;;;;;;;;;;;;;;;11.99;68.01;99978.31;4497477;31;33143;-91
2022/10/14 00:23:22;;;;;;;;;;;;;;;12.09;67.80;99972.09;4495960;31;33871;-91
2022/10/14 00:25:56;;;;;;;;;;;;;;;12.17;67.47;99975.44;4498094;31;33207;-91
2022/10/14 00:28:31;;;;;;;;;;;;;;;12.24;67.35;99968.41;4502382;31;33949;-92
2022/10/14 00:31:01;;;;;;;;;;;;;;;12.11;67.79;99971.19;4504113;31;33536;-89
2022/10/14 00:33:30;;;;;;;;;;;;;;;11.95;68.58;99977.50;4504351;31;33694;-92
2022/10/14 00:36:02;;;;;;;;;;;;;;;12.01;68.35;99971.31;4495379;31;34552;-91
2022/10/14 00:38:38;;;;;;;;;;;;;;;12.14;67.61;99968.53;4489318;31;33532;-92
2022/10/14 00:41:09;;;;;;;;;;;;;;;11.98;68.02;99972.22;4507779;31;32712;-91
2022/10/14 00:44:28;;;;;;;;;;;;;;;11.87;68.51;99964.59;4479729;31;33829;-89
2022/10/14 00:46:57;;;;;;;;;;;;;;;11.97;68.06;99967.06;4504023;31;35327;-90
2022/10/14 00:49:29;;;;;;;;;;;;;;;12.14;67.19;99967.69;4514060;31;33659;-93
2022/10/14 00:51:58;;;;;;;;;;;;;;;11.90;68.12;99955.91;4482239;31;32313;-91
2022/10/14 00:54:29;;;;;;;;;;;;;;;11.91;67.90;99958.50;4495788;31;33581;-87
2022/10/14 00:56:58;;;;;;;;;;;;;;;11.87;68.18;99962.00;4495045;31;33798;-89
2022/10/14 00:59:35;;;;;;;;;;;;;;;11.83;67.93;99962.03;4498435;31;34598;-92
2022/10/14 01:02:04;;;;;;;;;;;;;;;11.79;68.04;99958.62;4504957;31;32700;-89
2022/10/14 01:04:32;;;;;;;;;;;;;;;11.80;68.04;99962.09;4501342;31;33602;-89
2022/10/14 01:07:02;;;;;;;;;;;;;;;11.80;68.00;99959.47;4500286;31;34101;-88
2022/10/14 01:09:34;;;;;;;;;;;;;;;11.86;68.00;99960.25;4495944;31;35194;-89
2022/10/14 01:12:04;;;;;;;;;;;;;;;12.00;67.52;99954.03;4495048;31;33244;-89
2022/10/14 01:14:59;;;;;;;;;;;;;;;11.77;68.34;99960.38;4506458;31;33759;-90
2022/10/14 01:17:32;;;;;;;;;;;;;;;11.93;67.94;99954.09;4493807;31;35263;-89
2022/10/14 01:20:30;;;;;;;;;;;;;;;11.91;68.12;99953.28;4499186;31;33580;-88
2022/10/14 01:23:03;;;;;;;;;;;;;;;11.97;68.00;99949.72;4488980;31;32910;-88
2022/10/14 01:25:33;;;;;;;;;;;;;;;11.90;68.29;99953.28;4495123;31;33558;-88
2022/10/14 01:28:19;;;;;;;;;;;;;;;11.89;68.40;99952.44;4494750;31;34894;-90
2022/10/14 01:30:49;;;;;;;;;;;;;;;12.04;67.81;99945.31;4499044;31;34124;-90
2022/10/14 01:33:19;;;;;;;;;;;;;;;11.93;68.24;99948.91;4494891;31;33716;-92
2022/10/14 01:35:52;;;;;;;;;;;;;;;11.73;69.08;99945.72;4499458;31;34219;-91
2022/10/14 01:38:22;;;;;;;;;;;;;;;11.79;69.06;99937.84;4501949;31;33648;-90
2022/10/14 01:40:55;;;;;;;;;;;;;;;11.86;68.96;99939.47;4497684;31;33643;-87
2022/10/14 01:43:24;;;;;;;;;;;;;;;11.75;69.28;99939.59;4494118;31;32463;-90
2022/10/14 01:45:55;;;;;;;;;;;;;;;11.82;69.07;99940.37;4503048;31;33978;-88
2022/10/14 01:48:24;;;;;;;;;;;;;;;12.03;68.46;99934.03;4481353;31;32201;-89
2022/10/14 01:50:56;;;;;;;;;;;;;;;12.08;68.40;99936.56;4495498;31;34481;-89
2022/10/14 01:53:26;;;;;;;;;;;;;;;11.97;68.83;99928.94;4483404;31;32064;-89
2022/10/14 01:55:57;;;;;;;;;;;;;;;12.09;68.42;99927.88;4494408;31;34401;-91
2022/10/14 01:58:26;;;;;;;;;;;;;;;12.14;68.07;99929.53;4501220;31;34623;-91
2022/10/14 02:00:58;;;;;;;;;;;;;;;12.14;67.90;99921.72;4494151;31;32790;-93
2022/10/14 02:03:37;;;;;;;;;;;;;;;12.14;67.59;99926.06;4510150;31;32732;-91
2022/10/14 02:06:07;;;;;;;;;;;;;;;12.06;67.90;99931.41;4512019;31;33527;-92
2022/10/14 02:08:42;;;;;;;;;;;;;;;11.95;68.54;99930.69;4499760;31;32996;-90
2022/10/14 02:11:11;;;;;;;;;;;;;;;12.10;68.06;99929.59;4485550;31;32928;-90
2022/10/14 02:13:47;;;;;;;;;;;;;;;12.09;68.10;99933.94;4479738;31;31434;-89
2022/10/14 02:16:18;;;;;;;;;;;;;;;12.10;68.06;99937.41;4495464;31;34381;-89
2022/10/14 02:18:56;;;;;;;;;;;;;;;12.00;68.56;99934.06;4481753;31;34157;-92
2022/10/14 02:21:26;;;;;;;;;;;;;;;11.86;68.68;99935.97;4499332;31;33866;-90
2022/10/14 02:24:15;;;;;;;;;;;;;;;11.90;68.25;99925.56;4498078;31;33252;-92
2022/10/14 02:26:54;;;;;;;;;;;;;;;11.97;67.93;99928.06;4500632;31;34621;-88
2022/10/14 02:29:24;;;;;;;;;;;;;;;11.74;68.75;99927.50;4515393;31;34221;-88
2022/10/14 02:32:00;;;;;;;;;;;;;;;11.80;68.35;99921.34;4509848;31;34792;-90
2022/10/14 02:34:31;;;;;;;;;;;;;;;11.87;67.70;99928.22;4510496;31;33042;-91
2022/10/14 02:37:00;;;;;;;;;;;;;;;11.66;68.39;99924.13;4498086;31;31881;-91
2022/10/14 02:39:36;;;;;;;;;;;;;;;11.75;67.91;99924.00;4494507;31;34713;-88
2022/10/14 02:42:05;;;;;;;;;;;;;;;11.69;68.19;99918.91;4495482;31;34063;-93
2022/10/14 02:44:38;;;;;;;;;;;;;;;11.74;67.76;99921.41;4493895;31;33294;-89
2022/10/14 02:47:08;;;;;;;;;;;;;;;11.92;67.09;99922.94;4497638;31;33832;-89
2022/10/14 02:49:37;;;;;;;;;;;;;;;11.81;67.35;99920.44;4497388;31;35633;-87
2022/10/14 02:52:07;;;;;;;;;;;;;;;11.73;67.86;99923.16;4493738;31;33534;-91
2022/10/14 02:54:42;;;;;;;;;;;;;;;11.62;68.50;99926.78;4483294;31;32313;-89
2022/10/14 02:57:11;;;;;;;;;;;;;;;11.63;68.48;99924.19;4494544;31;33730;-89
2022/10/14 02:59:42;;;;;;;;;;;;;;;11.73;68.20;99914.53;4499793;31;33797;-91
2022/10/14 03:02:12;;;;;;;;;;;;;;;11.90;67.51;99915.16;4482247;31;32969;-94
2022/10/14 03:04:42;;;;;;;;;;;;;;;11.56;68.62;99917.34;4503253;31;32934;-90
2022/10/14 03:07:10;;;;;;;;;;;;;;;11.73;67.95;99914.53;4494148;31;34129;-93
2022/10/14 03:09:40;;;;;;;;;;;;;;;11.59;68.34;99916.44;4498704;31;34108;-89
2022/10/14 03:12:13;;;;;;;;;;;;;;;11.75;68.20;99915.34;4503792;31;33467;-89
2022/10/14 03:14:43;;;;;;;;;;;;;;;11.88;67.77;99919.50;4494877;31;31772;-89
2022/10/14 03:17:17;;;;;;;;;;;;;;;11.96;67.32;99922.03;4493285;31;34188;-89
2022/10/14 03:19:46;;;;;;;;;;;;;;;12.00;67.30;99926.28;4499850;31;34758;-94
2022/10/14 03:22:15;;;;;;;;;;;;;;;11.91;67.81;99922.09;4500008;31;34343;-89
2022/10/14 03:24:48;;;;;;;;;;;;;;;11.77;68.71;99920.50;4495773;31;33638;-90
2022/10/14 03:27:18;;;;;;;;;;;;;;;11.87;68.68;99916.97;4480985;31;32466;-92
2022/10/14 03:29:50;;;;;;;;;;;;;;;12.02;68.26;99915.84;4496290;31;33872;-91
2022/10/14 03:32:20;;;;;;;;;;;;;;;12.04;68.51;99911.50;4496084;31;33687;-89
2022/10/14 03:34:54;;;;;;;;;;;;;;;12.20;68.04;99902.53;4478993;31;32483;-92
2022/10/14 03:37:23;;;;;;;;;;;;;;;11.92;69.08;99912.53;4495121;31;34854;-93
2022/10/14 03:39:53;;;;;;;;;;;;;;;12.11;68.88;99907.91;4503642;31;33691;-95
2022/10/14 03:42:22;;;;;;;;;;;;;;;12.09;68.85;99910.53;4502203;31;34558;-91
2022/10/14 03:44:53;;;;;;;;;;;;;;;12.26;68.34;99912.00;4501528;31;34164;-89
2022/10/14 03:47:23;;;;;;;;;;;;;;;12.14;68.88;99918.28;4495652;31;33149;-93
2022/10/14 03:49:52;;;;;;;;;;;;;;;12.40;68.20;99911.78;4485915;31;32463;-91
2022/10/14 03:52:26;;;;;;;;;;;;;;;12.45;67.93;99907.38;4480051;31;32715;-90
2022/10/14 03:54:57;;;;;;;;;;;;;;;12.34;68.35;99904.94;4496840;31;33234;-90
2022/10/14 03:57:26;;;;;;;;;;;;;;;12.38;68.37;99902.25;4485769;31;32217;-89
2022/10/14 04:00:02;;;;;;;;;;;;;;;12.36;68.57;99900.56;4500136;31;34307;-91
2022/10/14 04:02:43;;;;;;;;;;;;;;;12.51;67.69;99899.44;4480363;31;32522;-91
2022/10/14 04:05:13;;;;;;;;;;;;;;;12.44;67.82;99890.00;4480553;31;31328;-89
2022/10/14 04:07:42;;;;;;;;;;;;;;;12.51;67.09;99889.03;4482372;31;32174;-89
2022/10/14 04:10:11;;;;;;;;;;;;;;;12.36;67.54;99901.41;4501443;31;33257;-92
2022/10/14 04:12:45;;;;;;;;;;;;;;;12.35;67.53;99888.44;4481413;31;33601;-89
2022/10/14 04:15:15;;;;;;;;;;;;;;;12.44;67.10;99892.63;4479979;31;32483;-89
2022/10/14 04:17:47;;;;;;;;;;;;;;;12.53;66.04;99889.84;4495310;31;35004;-90
2022/10/14 04:20:17;;;;;;;;;;;;;;;12.38;66.48;99886.63;4487941;31;34160;-90
2022/10/14 04:22:48;;;;;;;;;;;;;;;12.19;66.96;99884.38;4488997;31;32984;-89
2022/10/14 04:25:17;;;;;;;;;;;;;;;12.22;66.70;99889.53;4500104;31;33763;-90
2022/10/14 04:27:54;;;;;;;;;;;;;;;12.21;66.31;99883.47;4482693;31;33690;-89
2022/10/14 04:30:29;;;;;;;;;;;;;;;12.16;66.18;99885.28;4494739;31;33825;-88
2022/10/14 04:33:01;;;;;;;;;;;;;;;12.12;66.48;99881.03;4487640;31;34067;-91
2022/10/14 04:35:29;;;;;;;;;;;;;;;12.12;66.14;99878.41;4500557;31;33693;-91
2022/10/14 04:37:58;;;;;;;;;;;;;;;12.05;66.02;99876.81;4496457;31;33926;-91
2022/10/14 04:40:29;;;;;;;;;;;;;;;12.09;65.70;99883.69;4491572;31;34061;-90
2022/10/14 04:43:00;;;;;;;;;;;;;;;12.11;65.30;99885.38;4494959;31;34319;-92
2022/10/14 04:45:31;;;;;;;;;;;;;;;12.11;65.26;99889.72;4501753;31;33266;-89
2022/10/14 04:48:05;;;;;;;;;;;;;;;11.98;65.44;99883.84;4494616;31;33523;-89
2022/10/14 04:50:36;;;;;;;;;;;;;;;11.91;66.02;99885.69;4500213;31;33457;-88
2022/10/14 04:53:15;;;;;;;;;;;;;;;11.72;66.56;99887.69;4494066;31;34415;-89
2022/10/14 04:55:51;;;;;;;;;;;;;;;11.62;66.98;99893.00;4480828;31;32639;-89
2022/10/14 04:58:27;;;;;;;;;;;;;;;11.72;66.77;99890.28;4488800;31;33143;-92
2022/10/14 05:01:05;;;;;;;;;;;;;;;11.82;66.13;99898.78;4482772;31;33693;-91
2022/10/14 05:03:36;;;;;;;;;;;;;;;11.70;66.68;99899.81;4492962;31;34343;-92
2022/10/14 05:06:15;;;;;;;;;;;;;;;11.74;66.48;99898.03;4480273;31;32287;-89
2022/10/14 05:08:46;;;;;;;;;;;;;;;11.68;66.42;99895.53;4486945;31;34334;-90
2022/10/14 05:11:15;;;;;;;;;;;;;;;11.70;66.64;99892.03;4501660;31;33557;-94
2022/10/14 05:13:47;;;;;;;;;;;;;;;11.53;67.35;99894.03;4494407;31;33978;-91
2022/10/14 05:16:17;;;;;;;;;;;;;;;11.51;67.49;99895.78;4495902;31;33398;-91
2022/10/14 05:18:50;;;;;;;;;;;;;;;11.62;67.04;99890.41;4492728;31;33556;-90
2022/10/14 05:21:20;;;;;;;;;;;;;;;11.71;67.15;99893.72;4483304;32;32963;-94
2022/10/14 05:23:49;;;;;;;;;;;;;;;11.73;67.22;99885.94;4476648;31;34747;-92
2022/10/14 05:26:18;;;;;;;;;;;;;;;11.63;67.43;99892.16;4476743;31;34918;-90
2022/10/14 05:28:51;;;;;;;;;;;;;;;11.86;66.71;99895.28;4486322;31;33994;-92
2022/10/14 05:31:20;;;;;;;;;;;;;;;11.88;66.67;99892.66;4480158;31;34118;-90
2022/10/14 05:33:54;;;;;;;;;;;;;;;11.86;66.54;99897.00;4486686;31;33362;-90
2022/10/14 05:36:25;;;;;;;;;;;;;;;11.91;66.57;99895.22;4488263;31;33579;-96
2022/10/14 05:39:04;;;;;;;;;;;;;;;11.69;67.33;99902.44;4480950;31;34816;-91
2022/10/14 05:41:36;;;;;;;;;;;;;;;11.79;67.38;99903.16;4477516;31;34573;-90
2022/10/14 05:44:10;;;;;;;;;;;;;;;11.80;67.34;99903.16;4477958;31;33267;-94
2022/10/14 05:46:53;;;;;;;;;;;;;;;11.80;67.89;99899.69;4481658;31;32231;-90
2022/10/14 05:49:31;;;;;;;;;;;;;;;11.94;67.73;99903.84;4483611;31;33334;-93
2022/10/14 05:52:03;;;;;;;;;;;;;;;11.95;68.07;99915.09;4482700;31;34260;-90
2022/10/14 05:54:33;;;;;;;;;;;;;;;12.00;68.01;99917.63;4478306;32;34308;-89
2022/10/14 05:57:03;;;;;;;;;;;;;;;12.08;68.22;99916.63;4478691;32;33470;-89
2022/10/14 05:59:33;;;;;;;;;;;;;;;12.15;68.34;99912.16;4482802;32;32013;-89
2022/10/14 06:02:04;;;;;;;;;;;;;;;12.24;68.37;99917.22;4483145;32;34555;-90
2022/10/14 06:04:38;;;;;;;;;;;;;;;12.32;68.43;99912.78;4483779;32;34494;-88
2022/10/14 06:07:15;;;;;;;;;;;;;;;12.36;68.34;99922.22;4482314;32;33991;-89
2022/10/14 06:09:50;;;;;;;;;;;;;;;12.31;68.99;99924.06;4486156;32;32684;-89
2022/10/14 06:12:20;;;;;;;;;;;;;;;12.47;68.82;99922.06;4485759;31;35059;-91
2022/10/14 06:15:13;;;;;;;;;;;;;;;12.66;68.07;99924.31;4482783;31;35243;-92
2022/10/14 06:17:43;;;;;;;;;;;;;;;12.78;67.75;99924.09;4481066;32;31638;-87
2022/10/14 06:20:16;;;;;;;;;;;;;;;12.90;67.27;99930.81;4480067;31;33806;-91
2022/10/14 06:22:45;;;;;;;;;;;;;;;12.95;67.03;99931.59;4483239;31;34754;-89
2022/10/14 06:25:16;;;;;;;;;;;;;;;12.53;68.84;99929.75;4485866;31;34623;-89
2022/10/14 06:27:45;;;;;;;;;;;;;;;12.75;68.19;99935.41;4479580;31;33793;-90
2022/10/14 06:30:18;;;;;;;;;;;;;;;12.93;67.54;99933.37;4467850;31;34368;-89
2022/10/14 06:32:48;;;;;;;;;;;;;;;12.79;68.19;99942.31;4478796;31;35187;-89
2022/10/14 06:35:22;;;;;;;;;;;;;;;12.96;67.79;99946.34;4498757;31;35699;-90
2022/10/14 06:37:51;;;;;;;;;;;;;;;13.03;67.78;99940.13;4479417;31;34491;-90
2022/10/14 06:40:23;;;;;;;;;;;;;;;12.94;68.21;99941.16;4482485;31;33089;-91
2022/10/14 06:42:52;;;;;;;;;;;;;;;13.07;67.87;99939.19;4480806;31;33600;-88
2022/10/14 06:45:22;;;;;;;;;;;;;;;13.17;67.81;99932.91;4481021;31;34609;-91
2022/10/14 06:47:50;;;;;;;;;;;;;;;13.22;67.72;99938.03;4499092;31;33275;-91
2022/10/14 06:50:24;;;;;;;;;;;;;;;13.19;68.14;99940.69;4487286;31;35370;-91
2022/10/14 06:52:54;;;;;;;;;;;;;;;13.18;68.54;99945.03;4495910;31;34256;-93
2022/10/14 06:55:24;;;;;;;;;;;;;;;13.15;69.25;99946.84;4475920;31;34984;-93
2022/10/14 06:57:57;;;;;;;;;;;;;;;13.40;68.48;99955.06;4496063;31;32923;-90
2022/10/14 07:00:26;;;;;;;;;;;;;;;13.22;70.07;99957.13;4480886;31;34495;-89
2022/10/14 07:02:55;;;;;;;;;;;;;;;13.31;70.32;99952.63;4494314;31;33234;-90
2022/10/14 07:05:28;;;;;;;;;;;;;;;13.43;70.15;99944.56;4486354;31;35190;-90
2022/10/14 07:07:58;;;;;;;;;;;;;;;13.57;70.05;99946.88;4500492;31;34096;-92
2022/10/14 07:10:29;;;;;;;;;;;;;;;13.92;69.25;99945.25;4501495;31;34353;-90
2022/10/14 07:12:58;;;;;;;;;;;;;;;14.04;68.74;99940.63;4489668;31;34964;-91
2022/10/14 07:15:30;;;;;;;;;;;;;;;14.05;68.82;99946.69;4504882;31;33266;-92
2022/10/14 07:18:04;;;;;;;;;;;;;;;14.19;68.39;99943.75;4502226;31;33173;-89
2022/10/14 07:20:40;;;;;;;;;;;;;;;14.18;68.56;99947.25;4479713;31;35581;-89
2022/10/14 07:23:11;;;;;;;;;;;;;;;14.27;68.53;99947.87;4488838;31;34823;-92
2022/10/14 07:25:42;;;;;;;;;;;;;;;14.18;69.13;99949.84;4477915;31;33652;-92
2022/10/14 07:28:16;;;;;;;;;;;;;;;14.28;68.85;99952.22;4478535;31;33441;-90
2022/10/14 07:30:45;;;;;;;;;;;;;;;14.44;68.24;99944.84;4479252;31;33541;-88
2022/10/14 07:33:18;;;;;;;;;;;;;;;14.51;68.28;99945.56;4485956;31;35675;-91
2022/10/14 07:35:48;;;;;;;;;;;;;;;14.69;67.70;99952.09;4476395;31;35813;-88
2022/10/14 07:38:20;;;;;;;;;;;;;;;14.69;68.05;99949.47;4481619;31;33626;-94
2022/10/14 07:40:58;;;;;;;;;;;;;;;14.89;67.56;99949.84;4479129;31;35199;-91
2022/10/14 07:43:28;;;;;;;;;;;;;;;15.02;67.49;99952.12;4478794;31;34547;-90
2022/10/14 07:46:03;;;;;;;;;;;;;;;15.04;67.46;99952.94;4484429;31;33910;-91
2022/10/14 07:48:33;;;;;;;;;;;;;;;15.12;67.57;99940.50;4482287;31;33520;-89
2022/10/14 07:51:29;;;;;;;;;;;;;;;15.43;65.39;99948.34;4478978;31;34246;-91
2022/10/14 07:53:58;;;;;;;;;;;;;;;15.47;64.70;99954.34;4480406;31;33971;-95
2022/10/14 07:56:28;;;;;;;;;;;;;;;15.58;63.87;99945.28;4478458;31;34326;-90
2022/10/14 07:58:58;;;;;;;;;;;;;;;15.73;63.52;99941.38;4463647;31;32281;-90
2022/10/14 08:01:28;;;;;;;;;;;;;;;15.70;64.48;99940.59;4478641;31;33999;-91
2022/10/14 08:04:02;;;;;;;;;;;;;;;16.07;62.43;99939.47;4465652;31;34301;-90
2022/10/14 08:06:43;;;;;;;;;;;;;;;16.03;61.88;99932.63;4479888;31;36417;-92
2022/10/14 08:09:17;;;;;;;;;;;;;;;16.07;62.26;99932.50;4481075;31;33981;-92
2022/10/14 08:11:46;;;;;;;;;;;;;;;16.19;61.50;99928.62;4487015;31;35156;-91
2022/10/14 08:14:23;;;;;;;;;;;;;;;16.22;61.45;99931.13;4483963;31;35423;-90
2022/10/14 08:16:52;;;;;;;;;;;;;;;16.33;60.97;99933.37;4476519;31;34762;-94
2022/10/14 08:19:25;;;;;;;;;;;;;;;16.09;62.23;99935.03;4485425;31;32971;-91
2022/10/14 08:21:58;;;;;;;;;;;;;;;16.30;61.53;99934.34;4479293;31;32814;-89
2022/10/14 08:24:28;;;;;;;;;;;;;;;16.28;61.41;99933.53;4490728;31;34323;-89
2022/10/14 08:26:59;;;;;;;;;;;;;;;16.40;60.93;99924.44;4484068;31;33618;-91
2022/10/14 08:29:29;;;;;;;;;;;;;;;16.54;61.21;99926.59;4479631;31;31848;-92
2022/10/14 08:32:00;;;;;;;;;;;;;;;16.65;60.16;99924.47;4479711;31;35064;-88
2022/10/14 08:34:30;;;;;;;;;;;;;;;16.87;59.54;99919.38;4484470;31;33883;-92
2022/10/14 08:37:04;;;;;;;;;;;;;;;16.80;59.80;99921.34;4487641;31;33726;-89
2022/10/14 08:39:45;;;;;;;;;;;;;;;17.09;59.42;99914.19;4480395;31;33337;-91
2022/10/14 08:42:21;;;;;;;;;;;;;;;17.26;59.35;99908.34;4482875;31;34792;-90
2022/10/14 08:44:55;;;;;;;;;;;;;;;17.22;59.39;99910.19;4478579;31;34094;-91
2022/10/14 08:47:30;;;;;;;;;;;;;;;17.24;59.47;99908.38;4481343;31;33562;-91
2022/10/14 08:52:56;;;;;;;;;;;;;;;17.22;58.95;99910.19;4482594;31;33377;-89
2022/10/14 08:55:50;;;;;;;;;;;;;;;17.51;57.78;99910.03;4479772;31;34909;-91
2022/10/14 08:58:33;;;;;;;;;;;;;;;17.69;57.51;99912.81;4482781;31;34778;-88
2022/10/14 09:01:24;;;;;;;;;;;;;;;17.39;58.30;99914.81;4483176;31;33596;-89
2022/10/14 09:04:06;;;;;;;;;;;;;;;17.34;58.41;99908.91;4481203;31;34474;-89
2022/10/14 09:06:42;;;;;;;;;;;;;;;17.31;58.58;99914.25;4485517;31;35419;-89
2022/10/14 09:09:21;;;;;;;;;;;;;;;17.54;57.82;99918.66;4486382;31;34323;-90
2022/10/14 09:11:56;;;;;;;;;;;;;;;17.62;57.02;99924.44;4485737;31;34123;-88
2022/10/14 09:14:32;;;;;;;;;;;;;;;17.38;58.37;99915.75;4478284;31;34981;-89
2022/10/14 09:17:05;;;;;;;;;;;;;;;17.82;56.99;99910.56;4487015;31;34848;-89
2022/10/14 09:19:43;;;;;;;;;;;;;;;17.84;57.68;99921.03;4479536;31;34233;-91
2022/10/14 09:22:15;;;;;;;;;;;;;;;17.85;57.02;99920.94;4479709;31;32789;-90
2022/10/14 09:24:49;;;;;;;;;;;;;;;17.82;57.24;99917.59;4464341;32;33705;-89
2022/10/14 09:27:24;;;;;;;;;;;;;;;17.86;57.11;99922.69;4462670;32;33694;-89
2022/10/14 09:29:59;;;;;;;;;;;;;;;17.66;57.35;99918.19;4471537;32;35797;-89
2022/10/14 09:32:36;;;;;;;;;;;;;;;17.84;57.22;99923.66;4470233;32;34580;-89
2022/10/14 09:35:30;;;;;;;;;;;;;;;17.88;56.78;99925.25;4468221;32;32681;-91
2022/10/14 09:42:09;;;;;;;;;;;;;;;18.05;57.27;99919.28;4469250;32;34513;-89
2022/10/14 09:45:09;;;;;;;;;;;;;;;18.36;56.17;99912.78;4470025;32;34244;-90
2022/10/14 09:56:52;;;;;;;;;;;;;;;18.25;57.43;99908.84;4457766;32;33637;-90
2022/10/14 09:59:55;;;;;;;;;;;;;;;18.41;56.45;99909.06;4481352;32;36222;-92
2022/10/14 10:03:16;;;;;;;;;;;;;;;18.51;56.18;99913.03;4467504;32;36180;-89
2022/10/14 10:06:27;;;;;;;;;;;;;;;18.28;56.57;99913.12;4446039;32;34988;-90
2022/10/14 10:30:23;;;;;;;;;;;;;;;18.97;56.08;99900.53;4432329;32;34417;-92
2022/10/14 10:33:55;;;;;;;;;;;;;;;19.03;54.65;99894.16;4430559;32;34321;-89
2022/10/14 10:37:09;;;;;;;;;;;;;;;19.18;53.87;99903.13;4424613;32;34085;-90
2022/10/14 10:44:16;;;;;;;;;;;;;;;19.09;54.29;99886.00;4414215;32;33848;-90
2022/10/14 10:55:13;;;;;;;;;;;;;;;19.34;55.09;99880.47;4361790;32;33154;-90
2022/10/14 14:14:49;;;;;;;;;;;;;;;21.75;49.06;99751.13;4282691;33;33602;-90
2022/10/14 14:17:34;;;;;;;;;;;;;;;21.70;49.39;99740.84;4282341;33;35131;-92
2022/10/14 14:20:14;;;;;;;;;;;;;;;21.60;49.30;99741.44;4245096;33;1230262;-91
2022/10/14 14:26:26;;;;;;;;;;;;;;;21.43;49.17;99735.38;4280979;33;33479;-90
2022/10/14 14:29:32;;;;;;;;;;;;;;;21.44;49.46;99738.88;4282431;33;34670;-93
2022/10/14 14:32:22;;;;;;;;;;;;;;;21.27;50.05;99740.63;4288891;33;35145;-93
2022/10/14 14:35:03;;;;;;;;;;;;;;;21.22;50.15;99737.41;4298214;33;35071;-92
2022/10/14 14:37:45;;;;;;;;;;;;;;;21.15;50.87;99741.34;4288310;33;32961;-90
2022/10/14 14:40:30;;;;;;;;;;;;;;;21.07;51.34;99743.56;4299303;33;34398;-90
2022/10/14 14:43:10;;;;;;;;;;;;;;;20.89;51.68;99733.06;4297768;33;34888;-90
2022/10/14 14:45:46;;;;;;;;;;;;;;;20.93;51.61;99738.19;4297201;33;35702;-90
2022/10/14 14:48:27;;;;;;;;;;;;;;;20.91;51.88;99740.91;4282598;33;32216;-90
2022/10/14 14:51:05;;;;;;;;;;;;;;;20.86;51.99;99738.50;4302913;33;35203;-91
2022/10/14 14:57:04;;;;;;;;;;;;;;;20.83;52.48;99729.94;4462298;31;797154;-89
2022/10/14 14:59:55;;;;;;;;;;;;;;;20.66;52.73;99731.69;4471686;32;33535;-91
2022/10/14 15:02:36;;;;;;;;;;;;;;;20.53;53.00;99740.31;4466378;32;32871;-91
2022/10/14 15:05:11;;;;;;;;;;;;;;;20.53;53.05;99740.31;4452322;32;34257;-92
2022/10/14 15:07:51;;;;;;;;;;;;;;;20.38;53.29;99736.72;4455624;32;34244;-90
2022/10/14 15:10:35;;;;;;;;;;;;;;;20.31;53.56;99732.69;4457960;32;34350;-92
2022/10/14 15:13:32;;;;;;;;;;;;;;;20.24;53.89;99730.38;4473494;32;36163;-90
2022/10/14 15:16:02;;;;;;;;;;;;;;;20.00;54.39;99721.97;4469319;32;35257;-90
2022/10/14 15:18:31;;;;;;;;;;;;;;;19.90;54.68;99725.16;4457950;32;34042;-90
2022/10/14 15:21:06;;;;;;;;;;;;;;;19.88;54.90;99727.03;4455294;32;33189;-95
2022/10/14 15:23:42;;;;;;;;;;;;;;;19.81;55.39;99726.47;4448069;32;33245;-91
2022/10/14 15:26:39;;;;;;;;;;;;;;;19.63;56.05;99725.59;4473603;32;34226;-92
2022/10/14 15:29:23;;;;;;;;;;;;;;;19.67;56.11;99723.66;4434072;32;34360;-91
2022/10/14 15:32:03;;;;;;;;;;;;;;;19.64;56.12;99729.91;4465143;32;33150;-91
2022/10/14 15:34:34;;;;;;;;;;;;;;;19.62;56.04;99731.81;4447126;32;35085;-93
2022/10/14 15:37:04;;;;;;;;;;;;;;;19.57;56.31;99739.03;4452815;32;33231;-90
2022/10/14 15:39:32;;;;;;;;;;;;;;;19.40;56.85;99737.25;4452510;32;33011;-95
2022/10/14 15:42:05;;;;;;;;;;;;;;;19.22;57.59;99732.91;4459755;32;33890;-90
2022/10/14 15:44:35;;;;;;;;;;;;;;;19.10;57.97;99739.59;4464623;32;34153;-95
2022/10/14 15:47:21;;;;;;;;;;;;;;;18.95;58.39;99743.78;4451969;32;36294;-92
2022/10/14 15:49:57;;;;;;;;;;;;;;;18.92;58.54;99746.56;4451585;32;34854;-90
2022/10/14 15:52:32;;;;;;;;;;;;;;;18.85;58.98;99742.53;4455101;32;35397;-94
2022/10/14 15:55:01;;;;;;;;;;;;;;;18.60;59.53;99746.22;4467769;32;34606;-92
2022/10/14 15:57:33;;;;;;;;;;;;;;;18.56;59.79;99749.94;4462721;32;34785;-88
2022/10/14 16:00:04;;;;;;;;;;;;;;;18.50;60.23;99750.19;4466042;32;34477;-93
2022/10/14 16:02:48;;;;;;;;;;;;;;;18.54;60.02;99749.16;4455770;32;33396;-92
2022/10/14 16:05:24;;;;;;;;;;;;;;;18.32;60.56;99746.62;4451891;32;35043;-90
2022/10/14 16:07:53;;;;;;;;;;;;;;;18.09;60.98;99748.47;4434780;32;33214;-92
2022/10/14 16:10:28;;;;;;;;;;;;;;;18.05;61.16;99751.28;4440526;32;33855;-92
2022/10/14 16:13:09;;;;;;;;;;;;;;;17.96;61.41;99751.69;4442317;32;34236;-90
2022/10/14 16:15:44;;;;;;;;;;;;;;;17.88;61.60;99747.63;4456893;32;33222;-91
2022/10/14 16:18:13;;;;;;;;;;;;;;;17.83;61.52;99754.84;4438187;32;33606;-91
2022/10/14 16:20:45;;;;;;;;;;;;;;;17.78;61.58;99762.00;4463510;32;34636;-93
2022/10/14 16:23:15;;;;;;;;;;;;;;;17.61;61.97;99765.31;4440781;32;32142;-90
2022/10/14 16:25:47;;;;;;;;;;;;;;;17.53;62.19;99767.41;4436635;32;35024;-92
2022/10/14 16:28:20;;;;;;;;;;;;;;;17.47;62.45;99765.06;4440081;32;34768;-88
2022/10/14 16:30:56;;;;;;;;;;;;;;;17.36;62.66;99764.63;4439868;32;34400;-89
2022/10/14 16:33:29;;;;;;;;;;;;;;;17.36;63.07;99765.47;4457568;32;34289;-91
2022/10/14 16:35:58;;;;;;;;;;;;;;;17.42;63.04;99773.09;4456513;32;33340;-89
2022/10/14 16:38:28;;;;;;;;;;;;;;;17.39;62.93;99775.81;4445336;32;33077;-90
2022/10/14 16:40:58;;;;;;;;;;;;;;;17.37;62.82;99772.44;4462641;32;33849;-87
2022/10/14 16:43:27;;;;;;;;;;;;;;;17.23;64.56;99780.00;4463088;32;32805;-88
2022/10/14 16:46:03;;;;;;;;;;;;;;;17.09;64.57;99780.53;4461922;32;34328;-91
2022/10/14 16:48:36;;;;;;;;;;;;;;;16.96;64.86;99780.16;4463357;32;34649;-88
2022/10/14 16:51:05;;;;;;;;;;;;;;;17.03;64.03;99784.25;4461394;32;34079;-92
2022/10/14 16:53:45;;;;;;;;;;;;;;;16.85;64.52;99779.69;4460905;32;33237;-89
2022/10/14 16:59:04;;;;;;;;;;;;;;;16.47;65.36;99787.13;4465571;32;34918;-87
2022/10/14 17:01:37;;;;;;;;;;;;;;;16.86;64.54;99776.12;4449703;32;33717;-90
2022/10/14 17:04:12;;;;;;;;;;;;;;;16.91;64.53;99782.06;4459708;32;34403;-89
2022/10/14 17:06:43;;;;;;;;;;;;;;;16.80;64.76;99784.25;4460070;32;33416;-89
2022/10/14 17:09:13;;;;;;;;;;;;;;;16.59;65.09;99784.06;4466196;32;34639;-87
2022/10/14 17:11:48;;;;;;;;;;;;;;;16.59;64.97;99784.06;4445735;32;32419;-86
2022/10/14 17:14:17;;;;;;;;;;;;;;;16.46;65.04;99777.59;4459383;32;32675;-89
2022/10/14 17:17:04;;;;;;;;;;;;;;;16.51;64.95;99773.03;4462952;32;33888;-89
2022/10/14 17:19:35;;;;;;;;;;;;;;;16.54;64.85;99772.91;4442229;32;35470;-89
2022/10/14 17:22:10;;;;;;;;;;;;;;;16.48;65.16;99773.16;4465909;32;33812;-90
2022/10/14 17:24:43;;;;;;;;;;;;;;;16.30;65.43;99772.03;4442907;32;31661;-91
2022/10/14 17:27:12;;;;;;;;;;;;;;;16.31;65.26;99778.13;4455602;32;36523;-91
2022/10/14 17:29:41;;;;;;;;;;;;;;;16.42;64.97;99775.97;4457034;32;33543;-90
2022/10/14 17:32:14;;;;;;;;;;;;;;;16.19;65.44;99780.28;4438493;32;33987;-93
2022/10/14 17:34:42;;;;;;;;;;;;;;;16.16;65.55;99780.37;4459546;32;32532;-91
2022/10/14 17:37:11;;;;;;;;;;;;;;;16.05;65.73;99774.66;4454233;32;35127;-89
2022/10/14 17:39:41;;;;;;;;;;;;;;;16.02;65.69;99772.16;4454956;32;34406;-91